sensor_id;sensor_type;location;lat;lon;timestamp;P1;durP1;ratioP1;P2;durP2;ratioP2
31306;SDS011;17935;51.120;13.132;2022-12-07T00:00:50;25.70;;;16.13;;
31306;SDS011;17935;51.120;13.132;2022-12-07T00:03:15;24.58;;;15.57;;
31306;SDS011;17935;51.120;13.132;2022-12-07T00:05:41;22.63;;;16.20;;
31306;SDS011;17935;51.120;13.132;2022-12-07T00:08:07;23.23;;;16.23;;
31306;SDS011;17935;51.120;13.132;2022-12-07T00:10:34;25.47;;;15.77;;
31306;SDS011;17935;51.120;13.132;2022-12-07T00:13:00;24.52;;;16.42;;
31306;SDS011;17935;51.120;13.132;2022-12-07T00:15:26;22.50;;;16.15;;
31306;SDS011;17935;51.120;13.132;2022-12-07T00:17:52;25.90;;;16.73;;
31306;SDS011;17935;51.120;13.132;2022-12-07T00:20:18;23.83;;;16.77;;
31306;SDS011;17935;51.120;13.132;2022-12-07T00:22:44;25.38;;;16.45;;
31306;SDS011;17935;51.120;13.132;2022-12-07T00:25:09;24.52;;;16.80;;
31306;SDS011;17935;51.120;13.132;2022-12-07T00:27:35;24.98;;;16.50;;
31306;SDS011;17935;51.120;13.132;2022-12-07T00:30:01;22.83;;;16.50;;
31306;SDS011;17935;51.120;13.132;2022-12-07T00:32:27;22.27;;;15.23;;
31306;SDS011;17935;51.120;13.132;2022-12-07T00:34:53;21.98;;;15.20;;
31306;SDS011;17935;51.120;13.132;2022-12-07T00:37:19;19.40;;;14.73;;
31306;SDS011;17935;51.120;13.132;2022-12-07T00:39:45;18.13;;;13.87;;
31306;SDS011;17935;51.120;13.132;2022-12-07T00:42:11;18.40;;;13.32;;
31306;SDS011;17935;51.120;13.132;2022-12-07T00:44:37;17.55;;;12.98;;
31306;SDS011;17935;51.120;13.132;2022-12-07T00:47:03;17.13;;;12.90;;
31306;SDS011;17935;51.120;13.132;2022-12-07T00:49:33;18.75;;;12.85;;
31306;SDS011;17935;51.120;13.132;2022-12-07T00:52:01;18.60;;;13.60;;
31306;SDS011;17935;51.120;13.132;2022-12-07T00:54:27;16.10;;;12.07;;
31306;SDS011;17935;51.120;13.132;2022-12-07T00:56:53;17.30;;;12.30;;
31306;SDS011;17935;51.120;13.132;2022-12-07T00:59:19;14.93;;;11.80;;
31306;SDS011;17935;51.120;13.132;2022-12-07T01:01:45;18.48;;;12.85;;
31306;SDS011;17935;51.120;13.132;2022-12-07T01:04:11;16.55;;;12.27;;
31306;SDS011;17935;51.120;13.132;2022-12-07T01:06:37;17.02;;;12.57;;
31306;SDS011;17935;51.120;13.132;2022-12-07T01:09:03;17.48;;;12.32;;
31306;SDS011;17935;51.120;13.132;2022-12-07T01:11:31;17.95;;;12.50;;
31306;SDS011;17935;51.120;13.132;2022-12-07T01:13:57;14.88;;;11.45;;
31306;SDS011;17935;51.120;13.132;2022-12-07T01:16:24;15.63;;;12.18;;
31306;SDS011;17935;51.120;13.132;2022-12-07T01:18:51;18.98;;;12.98;;
31306;SDS011;17935;51.120;13.132;2022-12-07T01:21:19;17.65;;;12.70;;
31306;SDS011;17935;51.120;13.132;2022-12-07T01:23:46;16.42;;;12.98;;
31306;SDS011;17935;51.120;13.132;2022-12-07T01:26:13;17.50;;;12.68;;
31306;SDS011;17935;51.120;13.132;2022-12-07T01:28:39;16.58;;;12.15;;
31306;SDS011;17935;51.120;13.132;2022-12-07T01:31:10;17.95;;;12.77;;
31306;SDS011;17935;51.120;13.132;2022-12-07T01:33:36;17.70;;;13.18;;
31306;SDS011;17935;51.120;13.132;2022-12-07T01:36:16;16.13;;;12.73;;
31306;SDS011;17935;51.120;13.132;2022-12-07T01:38:43;19.13;;;14.23;;
31306;SDS011;17935;51.120;13.132;2022-12-07T01:41:09;18.80;;;13.65;;
31306;SDS011;17935;51.120;13.132;2022-12-07T01:43:35;19.75;;;14.85;;
31306;SDS011;17935;51.120;13.132;2022-12-07T01:46:02;23.40;;;16.30;;
31306;SDS011;17935;51.120;13.132;2022-12-07T01:48:30;24.53;;;17.80;;
31306;SDS011;17935;51.120;13.132;2022-12-07T01:51:00;25.20;;;18.00;;
31306;SDS011;17935;51.120;13.132;2022-12-07T01:53:27;27.23;;;18.42;;
31306;SDS011;17935;51.120;13.132;2022-12-07T01:55:54;26.60;;;19.38;;
31306;SDS011;17935;51.120;13.132;2022-12-07T01:58:20;26.00;;;19.15;;
31306;SDS011;17935;51.120;13.132;2022-12-07T02:00:47;28.05;;;20.33;;
31306;SDS011;17935;51.120;13.132;2022-12-07T02:03:18;26.70;;;19.38;;
31306;SDS011;17935;51.120;13.132;2022-12-07T02:05:44;27.13;;;20.15;;
31306;SDS011;17935;51.120;13.132;2022-12-07T02:08:11;27.70;;;20.88;;
31306;SDS011;17935;51.120;13.132;2022-12-07T02:10:38;27.27;;;20.88;;
31306;SDS011;17935;51.120;13.132;2022-12-07T02:13:05;28.23;;;20.58;;
31306;SDS011;17935;51.120;13.132;2022-12-07T02:15:34;27.55;;;20.33;;
31306;SDS011;17935;51.120;13.132;2022-12-07T02:18:25;28.92;;;20.02;;
31306;SDS011;17935;51.120;13.132;2022-12-07T02:28:12;27.50;;;18.90;;
31306;SDS011;17935;51.120;13.132;2022-12-07T02:30:45;26.98;;;18.77;;
31306;SDS011;17935;51.120;13.132;2022-12-07T02:35:54;28.48;;;19.30;;
31306;SDS011;17935;51.120;13.132;2022-12-07T02:41:07;31.65;;;21.15;;
31306;SDS011;17935;51.120;13.132;2022-12-07T02:43:43;33.65;;;21.20;;
31306;SDS011;17935;51.120;13.132;2022-12-07T02:46:11;33.22;;;20.73;;
31306;SDS011;17935;51.120;13.132;2022-12-07T02:48:39;31.42;;;21.08;;
31306;SDS011;17935;51.120;13.132;2022-12-07T02:51:06;34.92;;;22.55;;
31306;SDS011;17935;51.120;13.132;2022-12-07T02:53:36;35.83;;;22.05;;
31306;SDS011;17935;51.120;13.132;2022-12-07T02:56:04;35.53;;;22.15;;
31306;SDS011;17935;51.120;13.132;2022-12-07T02:58:38;37.20;;;22.42;;
31306;SDS011;17935;51.120;13.132;2022-12-07T03:03:34;35.93;;;21.90;;
31306;SDS011;17935;51.120;13.132;2022-12-07T03:08:44;32.92;;;20.48;;
31306;SDS011;17935;51.120;13.132;2022-12-07T03:11:13;35.30;;;19.90;;
31306;SDS011;17935;51.120;13.132;2022-12-07T03:16:16;25.83;;;18.07;;
31306;SDS011;17935;51.120;13.132;2022-12-07T03:18:51;28.77;;;18.17;;
31306;SDS011;17935;51.120;13.132;2022-12-07T03:21:18;28.13;;;18.70;;
31306;SDS011;17935;51.120;13.132;2022-12-07T03:23:46;27.20;;;17.52;;
31306;SDS011;17935;51.120;13.132;2022-12-07T03:26:14;27.23;;;18.20;;
31306;SDS011;17935;51.120;13.132;2022-12-07T03:28:44;27.23;;;17.83;;
31306;SDS011;17935;51.120;13.132;2022-12-07T03:31:31;25.65;;;17.25;;
31306;SDS011;17935;51.120;13.132;2022-12-07T03:34:01;24.73;;;17.40;;
31306;SDS011;17935;51.120;13.132;2022-12-07T03:36:31;27.42;;;18.23;;
31306;SDS011;17935;51.120;13.132;2022-12-07T03:39:03;29.63;;;17.88;;
31306;SDS011;17935;51.120;13.132;2022-12-07T03:41:31;26.42;;;17.58;;
31306;SDS011;17935;51.120;13.132;2022-12-07T03:43:59;29.42;;;19.33;;
31306;SDS011;17935;51.120;13.132;2022-12-07T03:46:36;27.30;;;18.07;;
31306;SDS011;17935;51.120;13.132;2022-12-07T03:49:06;28.27;;;18.65;;
31306;SDS011;17935;51.120;13.132;2022-12-07T03:56:42;27.77;;;18.47;;
31306;SDS011;17935;51.120;13.132;2022-12-07T03:59:08;33.95;;;19.75;;
31306;SDS011;17935;51.120;13.132;2022-12-07T04:01:35;31.77;;;18.75;;
31306;SDS011;17935;51.120;13.132;2022-12-07T04:04:01;31.35;;;18.77;;
31306;SDS011;17935;51.120;13.132;2022-12-07T04:06:27;31.10;;;18.20;;
31306;SDS011;17935;51.120;13.132;2022-12-07T04:08:53;27.58;;;17.75;;
31306;SDS011;17935;51.120;13.132;2022-12-07T04:11:19;29.42;;;18.00;;
31306;SDS011;17935;51.120;13.132;2022-12-07T04:13:45;28.17;;;18.13;;
31306;SDS011;17935;51.120;13.132;2022-12-07T04:16:37;32.50;;;18.33;;
31306;SDS011;17935;51.120;13.132;2022-12-07T04:19:03;24.55;;;16.15;;
31306;SDS011;17935;51.120;13.132;2022-12-07T04:21:29;26.30;;;16.92;;
31306;SDS011;17935;51.120;13.132;2022-12-07T04:23:54;22.83;;;15.68;;
31306;SDS011;17935;51.120;13.132;2022-12-07T04:26:20;23.67;;;15.30;;
31306;SDS011;17935;51.120;13.132;2022-12-07T04:28:46;23.17;;;14.55;;
31306;SDS011;17935;51.120;13.132;2022-12-07T04:31:12;22.58;;;14.57;;
31306;SDS011;17935;51.120;13.132;2022-12-07T04:33:38;22.95;;;14.30;;
31306;SDS011;17935;51.120;13.132;2022-12-07T04:36:04;20.40;;;14.23;;
31306;SDS011;17935;51.120;13.132;2022-12-07T04:38:30;19.20;;;13.17;;
31306;SDS011;17935;51.120;13.132;2022-12-07T04:40:56;18.07;;;12.83;;
31306;SDS011;17935;51.120;13.132;2022-12-07T04:43:22;16.17;;;11.93;;
31306;SDS011;17935;51.120;13.132;2022-12-07T04:45:48;15.73;;;11.53;;
31306;SDS011;17935;51.120;13.132;2022-12-07T04:48:15;16.13;;;10.68;;
31306;SDS011;17935;51.120;13.132;2022-12-07T04:50:41;14.23;;;10.20;;
31306;SDS011;17935;51.120;13.132;2022-12-07T04:53:07;13.82;;;10.30;;
31306;SDS011;17935;51.120;13.132;2022-12-07T04:55:33;16.15;;;10.18;;
31306;SDS011;17935;51.120;13.132;2022-12-07T04:57:59;14.30;;;10.05;;
31306;SDS011;17935;51.120;13.132;2022-12-07T05:00:25;13.27;;;8.88;;
31306;SDS011;17935;51.120;13.132;2022-12-07T05:02:51;11.20;;;8.77;;
31306;SDS011;17935;51.120;13.132;2022-12-07T05:05:17;13.63;;;8.57;;
31306;SDS011;17935;51.120;13.132;2022-12-07T05:07:43;14.13;;;8.50;;
31306;SDS011;17935;51.120;13.132;2022-12-07T05:10:09;10.60;;;7.63;;
31306;SDS011;17935;51.120;13.132;2022-12-07T05:12:35;10.17;;;7.93;;
31306;SDS011;17935;51.120;13.132;2022-12-07T05:15:01;12.43;;;8.57;;
31306;SDS011;17935;51.120;13.132;2022-12-07T05:17:26;9.77;;;7.78;;
31306;SDS011;17935;51.120;13.132;2022-12-07T05:19:52;11.25;;;7.65;;
31306;SDS011;17935;51.120;13.132;2022-12-07T05:22:18;10.43;;;7.40;;
31306;SDS011;17935;51.120;13.132;2022-12-07T05:24:44;11.20;;;7.30;;
31306;SDS011;17935;51.120;13.132;2022-12-07T05:27:10;8.93;;;7.05;;
31306;SDS011;17935;51.120;13.132;2022-12-07T05:29:36;8.73;;;6.70;;
31306;SDS011;17935;51.120;13.132;2022-12-07T05:32:02;9.00;;;6.30;;
31306;SDS011;17935;51.120;13.132;2022-12-07T05:34:28;9.37;;;6.60;;
31306;SDS011;17935;51.120;13.132;2022-12-07T05:36:54;9.23;;;6.37;;
31306;SDS011;17935;51.120;13.132;2022-12-07T05:39:20;8.00;;;6.43;;
31306;SDS011;17935;51.120;13.132;2022-12-07T05:41:46;10.65;;;7.28;;
31306;SDS011;17935;51.120;13.132;2022-12-07T05:44:30;11.77;;;7.95;;
31306;SDS011;17935;51.120;13.132;2022-12-07T05:46:56;10.13;;;7.65;;
31306;SDS011;17935;51.120;13.132;2022-12-07T05:49:22;10.60;;;8.45;;
31306;SDS011;17935;51.120;13.132;2022-12-07T05:51:48;11.43;;;8.90;;
31306;SDS011;17935;51.120;13.132;2022-12-07T05:54:14;11.98;;;9.50;;
31306;SDS011;17935;51.120;13.132;2022-12-07T05:56:40;19.98;;;13.35;;
31306;SDS011;17935;51.120;13.132;2022-12-07T05:59:07;18.05;;;12.70;;
31306;SDS011;17935;51.120;13.132;2022-12-07T06:04:15;19.70;;;13.65;;
31306;SDS011;17935;51.120;13.132;2022-12-07T06:06:41;16.75;;;12.05;;
31306;SDS011;17935;51.120;13.132;2022-12-07T06:09:07;20.60;;;13.88;;
31306;SDS011;17935;51.120;13.132;2022-12-07T06:11:33;21.10;;;13.02;;
31306;SDS011;17935;51.120;13.132;2022-12-07T06:14:18;19.73;;;12.60;;
31306;SDS011;17935;51.120;13.132;2022-12-07T06:16:44;20.73;;;13.45;;
31306;SDS011;17935;51.120;13.132;2022-12-07T06:19:10;15.93;;;11.45;;
31306;SDS011;17935;51.120;13.132;2022-12-07T06:21:36;20.23;;;12.05;;
31306;SDS011;17935;51.120;13.132;2022-12-07T06:24:02;17.95;;;12.38;;
31306;SDS011;17935;51.120;13.132;2022-12-07T06:26:28;18.15;;;12.63;;
31306;SDS011;17935;51.120;13.132;2022-12-07T06:28:54;17.95;;;11.20;;
31306;SDS011;17935;51.120;13.132;2022-12-07T06:31:20;15.10;;;11.80;;
31306;SDS011;17935;51.120;13.132;2022-12-07T06:33:46;15.17;;;11.73;;
31306;SDS011;17935;51.120;13.132;2022-12-07T06:36:12;18.40;;;13.60;;
31306;SDS011;17935;51.120;13.132;2022-12-07T06:38:38;22.83;;;14.30;;
31306;SDS011;17935;51.120;13.132;2022-12-07T06:41:04;23.93;;;16.23;;
31306;SDS011;17935;51.120;13.132;2022-12-07T06:43:30;18.93;;;13.80;;
31306;SDS011;17935;51.120;13.132;2022-12-07T06:45:56;19.70;;;13.88;;
31306;SDS011;17935;51.120;13.132;2022-12-07T06:48:22;27.45;;;16.73;;
31306;SDS011;17935;51.120;13.132;2022-12-07T06:50:48;16.80;;;11.77;;
31306;SDS011;17935;51.120;13.132;2022-12-07T06:53:14;18.27;;;13.13;;
31306;SDS011;17935;51.120;13.132;2022-12-07T06:55:41;21.90;;;15.20;;
31306;SDS011;17935;51.120;13.132;2022-12-07T06:58:07;23.33;;;14.70;;
31306;SDS011;17935;51.120;13.132;2022-12-07T07:00:33;18.05;;;13.90;;
31306;SDS011;17935;51.120;13.132;2022-12-07T07:03:00;14.98;;;12.25;;
31306;SDS011;17935;51.120;13.132;2022-12-07T07:05:26;19.63;;;13.02;;
31306;SDS011;17935;51.120;13.132;2022-12-07T07:07:52;20.88;;;15.23;;
31306;SDS011;17935;51.120;13.132;2022-12-07T07:10:18;17.75;;;14.20;;
31306;SDS011;17935;51.120;13.132;2022-12-07T07:12:44;21.55;;;14.65;;
31306;SDS011;17935;51.120;13.132;2022-12-07T07:15:10;22.88;;;15.88;;
31306;SDS011;17935;51.120;13.132;2022-12-07T07:17:36;23.57;;;16.23;;
31306;SDS011;17935;51.120;13.132;2022-12-07T07:20:03;24.92;;;17.58;;
31306;SDS011;17935;51.120;13.132;2022-12-07T07:22:29;21.75;;;16.73;;
31306;SDS011;17935;51.120;13.132;2022-12-07T07:24:55;27.63;;;18.83;;
31306;SDS011;17935;51.120;13.132;2022-12-07T07:27:21;26.27;;;16.92;;
31306;SDS011;17935;51.120;13.132;2022-12-07T07:29:47;23.02;;;16.88;;
31306;SDS011;17935;51.120;13.132;2022-12-07T07:32:13;24.48;;;17.58;;
31306;SDS011;17935;51.120;13.132;2022-12-07T07:34:39;24.60;;;17.88;;
31306;SDS011;17935;51.120;13.132;2022-12-07T07:37:05;24.35;;;18.20;;
31306;SDS011;17935;51.120;13.132;2022-12-07T07:39:31;26.83;;;18.13;;
31306;SDS011;17935;51.120;13.132;2022-12-07T07:41:57;22.42;;;17.40;;
31306;SDS011;17935;51.120;13.132;2022-12-07T07:44:23;22.42;;;16.70;;
31306;SDS011;17935;51.120;13.132;2022-12-07T07:46:49;20.85;;;15.95;;
31306;SDS011;17935;51.120;13.132;2022-12-07T07:49:14;21.83;;;16.17;;
31306;SDS011;17935;51.120;13.132;2022-12-07T07:51:40;23.75;;;16.48;;
31306;SDS011;17935;51.120;13.132;2022-12-07T07:54:06;21.17;;;16.65;;
31306;SDS011;17935;51.120;13.132;2022-12-07T07:56:32;21.92;;;16.67;;
31306;SDS011;17935;51.120;13.132;2022-12-07T07:58:58;22.95;;;16.35;;
31306;SDS011;17935;51.120;13.132;2022-12-07T08:01:24;19.17;;;15.65;;
31306;SDS011;17935;51.120;13.132;2022-12-07T08:03:50;21.95;;;16.17;;
31306;SDS011;17935;51.120;13.132;2022-12-07T08:06:16;23.58;;;16.15;;
31306;SDS011;17935;51.120;13.132;2022-12-07T08:08:42;22.40;;;15.93;;
31306;SDS011;17935;51.120;13.132;2022-12-07T08:11:08;21.73;;;16.43;;
31306;SDS011;17935;51.120;13.132;2022-12-07T08:13:34;21.27;;;15.80;;
31306;SDS011;17935;51.120;13.132;2022-12-07T08:16:07;21.77;;;15.52;;
31306;SDS011;17935;51.120;13.132;2022-12-07T08:18:35;20.00;;;15.60;;
31306;SDS011;17935;51.120;13.132;2022-12-07T08:21:01;21.05;;;15.50;;
31306;SDS011;17935;51.120;13.132;2022-12-07T08:23:27;19.42;;;14.93;;
31306;SDS011;17935;51.120;13.132;2022-12-07T08:25:53;17.70;;;14.75;;
31306;SDS011;17935;51.120;13.132;2022-12-07T08:28:19;21.05;;;14.35;;
31306;SDS011;17935;51.120;13.132;2022-12-07T08:30:45;17.15;;;13.77;;
31306;SDS011;17935;51.120;13.132;2022-12-07T08:33:11;19.98;;;14.35;;
31306;SDS011;17935;51.120;13.132;2022-12-07T08:35:37;19.20;;;15.02;;
31306;SDS011;17935;51.120;13.132;2022-12-07T08:38:03;20.92;;;14.43;;
31306;SDS011;17935;51.120;13.132;2022-12-07T08:40:29;16.10;;;12.82;;
31306;SDS011;17935;51.120;13.132;2022-12-07T08:42:55;17.77;;;12.98;;
31306;SDS011;17935;51.120;13.132;2022-12-07T08:45:21;16.83;;;13.23;;
31306;SDS011;17935;51.120;13.132;2022-12-07T08:50:17;17.42;;;13.38;;
31306;SDS011;17935;51.120;13.132;2022-12-07T08:52:43;16.13;;;12.35;;
31306;SDS011;17935;51.120;13.132;2022-12-07T08:55:09;17.83;;;12.18;;
31306;SDS011;17935;51.120;13.132;2022-12-07T08:57:36;15.82;;;11.38;;
31306;SDS011;17935;51.120;13.132;2022-12-07T09:00:03;16.52;;;11.20;;
31306;SDS011;17935;51.120;13.132;2022-12-07T09:02:30;12.63;;;9.98;;
31306;SDS011;17935;51.120;13.132;2022-12-07T09:04:57;13.70;;;10.32;;
31306;SDS011;17935;51.120;13.132;2022-12-07T09:07:23;14.20;;;10.77;;
31306;SDS011;17935;51.120;13.132;2022-12-07T09:09:49;12.40;;;9.48;;
31306;SDS011;17935;51.120;13.132;2022-12-07T09:12:15;13.23;;;10.00;;
31306;SDS011;17935;51.120;13.132;2022-12-07T09:14:41;13.88;;;10.90;;
31306;SDS011;17935;51.120;13.132;2022-12-07T09:17:07;14.85;;;10.60;;
31306;SDS011;17935;51.120;13.132;2022-12-07T09:19:34;15.30;;;10.73;;
31306;SDS011;17935;51.120;13.132;2022-12-07T09:22:00;13.25;;;10.18;;
31306;SDS011;17935;51.120;13.132;2022-12-07T09:24:26;16.52;;;11.27;;
31306;SDS011;17935;51.120;13.132;2022-12-07T09:26:52;14.98;;;11.02;;
31306;SDS011;17935;51.120;13.132;2022-12-07T09:29:18;14.80;;;10.65;;
31306;SDS011;17935;51.120;13.132;2022-12-07T09:31:44;15.73;;;10.93;;
31306;SDS011;17935;51.120;13.132;2022-12-07T09:34:09;15.52;;;10.93;;
31306;SDS011;17935;51.120;13.132;2022-12-07T09:36:36;13.55;;;10.15;;
31306;SDS011;17935;51.120;13.132;2022-12-07T09:39:02;14.63;;;10.70;;
31306;SDS011;17935;51.120;13.132;2022-12-07T09:41:29;16.10;;;11.38;;
31306;SDS011;17935;51.120;13.132;2022-12-07T09:43:58;11.93;;;9.77;;
31306;SDS011;17935;51.120;13.132;2022-12-07T09:46:26;13.23;;;9.30;;
31306;SDS011;17935;51.120;13.132;2022-12-07T09:48:52;13.95;;;9.98;;
31306;SDS011;17935;51.120;13.132;2022-12-07T09:51:22;11.60;;;9.30;;
31306;SDS011;17935;51.120;13.132;2022-12-07T09:53:49;13.82;;;9.70;;
31306;SDS011;17935;51.120;13.132;2022-12-07T09:56:16;12.55;;;10.13;;
31306;SDS011;17935;51.120;13.132;2022-12-07T09:58:42;13.77;;;9.13;;
31306;SDS011;17935;51.120;13.132;2022-12-07T10:03:36;12.25;;;9.95;;
31306;SDS011;17935;51.120;13.132;2022-12-07T10:06:03;15.00;;;9.95;;
31306;SDS011;17935;51.120;13.132;2022-12-07T10:08:30;15.85;;;10.50;;
31306;SDS011;17935;51.120;13.132;2022-12-07T10:10:56;14.17;;;10.53;;
31306;SDS011;17935;51.120;13.132;2022-12-07T10:13:34;15.15;;;11.07;;
31306;SDS011;17935;51.120;13.132;2022-12-07T10:16:00;18.13;;;11.48;;
31306;SDS011;17935;51.120;13.132;2022-12-07T10:18:34;14.90;;;10.52;;
31306;SDS011;17935;51.120;13.132;2022-12-07T10:23:30;17.00;;;10.27;;
31306;SDS011;17935;51.120;13.132;2022-12-07T10:25:56;15.65;;;10.95;;
31306;SDS011;17935;51.120;13.132;2022-12-07T10:28:22;17.08;;;9.65;;
31306;SDS011;17935;51.120;13.132;2022-12-07T10:31:22;15.27;;;10.23;;
31306;SDS011;17935;51.120;13.132;2022-12-07T10:33:59;15.52;;;10.00;;
31306;SDS011;17935;51.120;13.132;2022-12-07T10:36:36;17.67;;;11.10;;
31306;SDS011;17935;51.120;13.132;2022-12-07T10:39:16;14.43;;;10.45;;
31306;SDS011;17935;51.120;13.132;2022-12-07T10:41:55;18.27;;;11.50;;
31306;SDS011;17935;51.120;13.132;2022-12-07T10:44:22;17.15;;;10.93;;
31306;SDS011;17935;51.120;13.132;2022-12-07T10:56:54;20.17;;;13.48;;
31306;SDS011;17935;51.120;13.132;2022-12-07T11:07:35;18.53;;;12.93;;
31306;SDS011;17935;51.120;13.132;2022-12-07T11:15:14;19.75;;;11.60;;
31306;SDS011;17935;51.120;13.132;2022-12-07T11:20:40;18.90;;;11.85;;
31306;SDS011;17935;51.120;13.132;2022-12-07T11:25:32;15.55;;;9.82;;
31306;SDS011;17935;51.120;13.132;2022-12-07T11:28:10;16.83;;;9.57;;
31306;SDS011;17935;51.120;13.132;2022-12-07T11:30:42;12.98;;;8.77;;
31306;SDS011;17935;51.120;13.132;2022-12-07T11:35:54;15.38;;;8.00;;
31306;SDS011;17935;51.120;13.132;2022-12-07T11:38:33;12.57;;;7.30;;
31306;SDS011;17935;51.120;13.132;2022-12-07T11:41:02;15.23;;;7.18;;
31306;SDS011;17935;51.120;13.132;2022-12-07T11:44:14;14.52;;;8.85;;
31306;SDS011;17935;51.120;13.132;2022-12-07T11:46:55;15.05;;;8.95;;
31306;SDS011;17935;51.120;13.132;2022-12-07T11:49:40;18.92;;;9.90;;
31306;SDS011;17935;51.120;13.132;2022-12-07T11:52:09;17.75;;;9.43;;
31306;SDS011;17935;51.120;13.132;2022-12-07T11:54:40;21.70;;;10.05;;
31306;SDS011;17935;51.120;13.132;2022-12-07T11:57:09;14.18;;;9.18;;
31306;SDS011;17935;51.120;13.132;2022-12-07T11:59:36;15.00;;;10.00;;
31306;SDS011;17935;51.120;13.132;2022-12-07T12:02:14;15.77;;;8.17;;
31306;SDS011;17935;51.120;13.132;2022-12-07T12:04:47;13.52;;;9.20;;
31306;SDS011;17935;51.120;13.132;2022-12-07T12:07:17;13.57;;;9.02;;
31306;SDS011;17935;51.120;13.132;2022-12-07T12:10:05;15.27;;;8.50;;
31306;SDS011;17935;51.120;13.132;2022-12-07T12:20:30;13.95;;;8.35;;
31306;SDS011;17935;51.120;13.132;2022-12-07T12:23:01;13.88;;;7.72;;
31306;SDS011;17935;51.120;13.132;2022-12-07T12:25:35;12.25;;;7.93;;
31306;SDS011;17935;51.120;13.132;2022-12-07T12:28:03;14.52;;;8.55;;
31306;SDS011;17935;51.120;13.132;2022-12-07T12:30:34;15.20;;;8.88;;
31306;SDS011;17935;51.120;13.132;2022-12-07T12:33:12;15.63;;;8.40;;
31306;SDS011;17935;51.120;13.132;2022-12-07T12:35:39;15.45;;;7.60;;
31306;SDS011;17935;51.120;13.132;2022-12-07T12:40:50;12.90;;;7.38;;
31306;SDS011;17935;51.120;13.132;2022-12-07T12:48:45;10.52;;;6.40;;
31306;SDS011;17935;51.120;13.132;2022-12-07T12:54:29;13.70;;;7.20;;
31306;SDS011;17935;51.120;13.132;2022-12-07T12:56:55;10.13;;;5.90;;
31306;SDS011;17935;51.120;13.132;2022-12-07T12:59:32;10.50;;;6.22;;
31306;SDS011;17935;51.120;13.132;2022-12-07T13:04:28;12.18;;;6.20;;
31306;SDS011;17935;51.120;13.132;2022-12-07T13:06:56;12.38;;;6.68;;
31306;SDS011;17935;51.120;13.132;2022-12-07T13:09:23;12.15;;;5.80;;
31306;SDS011;17935;51.120;13.132;2022-12-07T13:11:54;12.27;;;6.20;;
31306;SDS011;17935;51.120;13.132;2022-12-07T13:17:09;11.75;;;5.95;;
31306;SDS011;17935;51.120;13.132;2022-12-07T13:27:25;8.15;;;4.68;;
31306;SDS011;17935;51.120;13.132;2022-12-07T13:29:51;8.70;;;4.70;;
31306;SDS011;17935;51.120;13.132;2022-12-07T13:32:23;9.90;;;5.43;;
31306;SDS011;17935;51.120;13.132;2022-12-07T13:34:50;6.85;;;4.70;;
31306;SDS011;17935;51.120;13.132;2022-12-07T13:37:28;8.05;;;4.95;;
31306;SDS011;17935;51.120;13.132;2022-12-07T13:39:56;8.07;;;4.43;;
31306;SDS011;17935;51.120;13.132;2022-12-07T13:42:33;8.60;;;4.73;;
31306;SDS011;17935;51.120;13.132;2022-12-07T13:45:01;7.63;;;4.53;;
31306;SDS011;17935;51.120;13.132;2022-12-07T13:47:49;9.02;;;4.32;;
31306;SDS011;17935;51.120;13.132;2022-12-07T13:50:25;11.25;;;4.22;;
31306;SDS011;17935;51.120;13.132;2022-12-07T13:52:54;5.82;;;3.92;;
31306;SDS011;17935;51.120;13.132;2022-12-07T13:55:21;7.35;;;4.05;;
31306;SDS011;17935;51.120;13.132;2022-12-07T13:57:47;5.75;;;3.72;;
31306;SDS011;17935;51.120;13.132;2022-12-07T14:00:16;6.60;;;3.08;;
31306;SDS011;17935;51.120;13.132;2022-12-07T14:06:02;4.82;;;2.60;;
31306;SDS011;17935;51.120;13.132;2022-12-07T14:08:29;6.65;;;3.03;;
31306;SDS011;17935;51.120;13.132;2022-12-07T14:10:55;9.53;;;3.23;;
31306;SDS011;17935;51.120;13.132;2022-12-07T14:13:30;6.88;;;3.22;;
31306;SDS011;17935;51.120;13.132;2022-12-07T14:15:57;6.45;;;3.28;;
31306;SDS011;17935;51.120;13.132;2022-12-07T14:21:02;9.38;;;3.50;;
31306;SDS011;17935;51.120;13.132;2022-12-07T14:23:28;8.50;;;3.55;;
31306;SDS011;17935;51.120;13.132;2022-12-07T14:26:04;5.00;;;3.38;;
31306;SDS011;17935;51.120;13.132;2022-12-07T14:28:32;6.77;;;3.37;;
31306;SDS011;17935;51.120;13.132;2022-12-07T14:30:58;8.52;;;3.42;;
31306;SDS011;17935;51.120;13.132;2022-12-07T14:33:24;6.20;;;3.17;;
31306;SDS011;17935;51.120;13.132;2022-12-07T14:35:50;6.60;;;3.00;;
31306;SDS011;17935;51.120;13.132;2022-12-07T14:38:21;6.22;;;2.70;;
31306;SDS011;17935;51.120;13.132;2022-12-07T14:40:47;7.03;;;2.70;;
31306;SDS011;17935;51.120;13.132;2022-12-07T14:43:14;7.15;;;2.70;;
31306;SDS011;17935;51.120;13.132;2022-12-07T14:45:41;5.80;;;2.83;;
31306;SDS011;17935;51.120;13.132;2022-12-07T14:48:07;8.07;;;2.50;;
31306;SDS011;17935;51.120;13.132;2022-12-07T14:50:37;4.97;;;2.40;;
31306;SDS011;17935;51.120;13.132;2022-12-07T14:53:09;10.55;;;2.50;;
31306;SDS011;17935;51.120;13.132;2022-12-07T14:55:36;6.82;;;2.78;;
31306;SDS011;17935;51.120;13.132;2022-12-07T14:58:02;11.73;;;3.28;;
31306;SDS011;17935;51.120;13.132;2022-12-07T15:00:28;5.65;;;2.63;;
31306;SDS011;17935;51.120;13.132;2022-12-07T15:02:54;7.35;;;2.78;;
31306;SDS011;17935;51.120;13.132;2022-12-07T15:05:20;8.63;;;2.83;;
31306;SDS011;17935;51.120;13.132;2022-12-07T15:07:47;7.27;;;2.70;;
31306;SDS011;17935;51.120;13.132;2022-12-07T15:10:18;7.28;;;2.90;;
31306;SDS011;17935;51.120;13.132;2022-12-07T15:12:45;6.50;;;2.92;;
31306;SDS011;17935;51.120;13.132;2022-12-07T15:15:11;6.32;;;2.85;;
31306;SDS011;17935;51.120;13.132;2022-12-07T15:17:38;7.07;;;3.20;;
31306;SDS011;17935;51.120;13.132;2022-12-07T15:20:04;10.03;;;3.40;;
31306;SDS011;17935;51.120;13.132;2022-12-07T15:22:30;6.03;;;3.00;;
31306;SDS011;17935;51.120;13.132;2022-12-07T15:24:56;9.40;;;3.20;;
31306;SDS011;17935;51.120;13.132;2022-12-07T15:27:22;7.63;;;3.30;;
31306;SDS011;17935;51.120;13.132;2022-12-07T15:29:48;7.78;;;3.42;;
31306;SDS011;17935;51.120;13.132;2022-12-07T15:32:14;6.82;;;3.17;;
31306;SDS011;17935;51.120;13.132;2022-12-07T15:34:40;6.22;;;3.20;;
31306;SDS011;17935;51.120;13.132;2022-12-07T15:37:06;5.35;;;3.05;;
31306;SDS011;17935;51.120;13.132;2022-12-07T15:39:32;8.38;;;3.00;;
31306;SDS011;17935;51.120;13.132;2022-12-07T15:41:58;8.27;;;3.00;;
31306;SDS011;17935;51.120;13.132;2022-12-07T15:44:24;6.93;;;2.97;;
31306;SDS011;17935;51.120;13.132;2022-12-07T15:47:09;6.17;;;3.10;;
31306;SDS011;17935;51.120;13.132;2022-12-07T15:49:35;6.27;;;2.67;;
31306;SDS011;17935;51.120;13.132;2022-12-07T15:52:01;8.00;;;3.10;;
31306;SDS011;17935;51.120;13.132;2022-12-07T15:54:27;5.65;;;3.20;;
31306;SDS011;17935;51.120;13.132;2022-12-07T15:56:53;5.15;;;2.72;;
31306;SDS011;17935;51.120;13.132;2022-12-07T15:59:20;4.90;;;2.83;;
31306;SDS011;17935;51.120;13.132;2022-12-07T16:01:46;7.43;;;3.73;;
31306;SDS011;17935;51.120;13.132;2022-12-07T16:04:12;5.80;;;3.20;;
31306;SDS011;17935;51.120;13.132;2022-12-07T16:06:38;10.07;;;3.20;;